Time;durP1;ratioP1;P1;durP2;ratioP2;P2;SDS_P1;SDS_P2;PMS_P1;PMS_P2;Temp;Humidity;BMP_temperature;BMP_pressure;BME280_temperature;BME280_humidity;BME280_pressure;Samples;Min_cycle;Max_cycle;Signal;HPM_P1;HPM_P2
2021/06/25 01:06:19;;;;;;;27.52;7.95;;;;;;;22.16;100.00;100614.27;1717397;78;21581;-61
2021/06/25 01:08:47;;;;;;;34.85;9.40;;;;;;;22.14;100.00;100610.33;1733143;79;21139;-61
2021/06/25 01:11:14;;;;;;;36.35;9.03;;;;;;;22.16;100.00;100612.91;1720325;80;20884;-61
2021/06/25 01:13:42;;;;;;;30.52;8.25;;;;;;;22.16;100.00;100611.55;1693457;82;21483;-60
2021/06/25 01:16:09;;;;;;;31.55;8.25;;;;;;;22.15;100.00;100614.79;1729162;80;22115;-62
2021/06/25 01:18:36;;;;;;;38.95;8.40;;;;;;;22.13;100.00;100603.63;1730474;80;20983;-61
2021/06/25 01:21:04;;;;;;;40.58;8.68;;;;;;;22.15;100.00;100607.08;1734065;79;21742;-61
2021/06/25 01:23:30;;;;;;;30.57;8.60;;;;;;;22.15;100.00;100612.55;1740541;79;21381;-61
2021/06/25 01:25:57;;;;;;;26.23;8.13;;;;;;;22.13;100.00;100612.69;1733470;79;20912;-62
2021/06/25 01:28:24;;;;;;;29.63;8.68;;;;;;;22.13;100.00;100607.23;1738524;80;21472;-61
2021/06/25 01:30:50;;;;;;;39.30;9.65;;;;;;;22.12;100.00;100608.72;1732925;80;20892;-61
2021/06/25 01:33:18;;;;;;;45.12;10.32;;;;;;;22.09;100.00;100608.47;1748115;79;21829;-61
2021/06/25 01:35:45;;;;;;;33.60;9.55;;;;;;;22.10;100.00;100613.45;1732191;80;21481;-61
2021/06/25 01:38:12;;;;;;;30.90;9.00;;;;;;;22.08;100.00;100616.81;1731956;80;20967;-62
2021/06/25 01:40:41;;;;;;;33.30;9.35;;;;;;;22.06;100.00;100618.81;1729157;80;21399;-61
2021/06/25 01:43:08;;;;;;;38.42;9.38;;;;;;;22.01;100.00;100610.52;1749217;79;20904;-60
2021/06/25 01:45:36;;;;;;;35.78;8.80;;;;;;;21.97;100.00;100611.76;1746018;80;21398;-61
2021/06/25 01:48:03;;;;;;;38.05;8.90;;;;;;;21.94;100.00;100610.66;1733882;80;21370;-61
2021/06/25 01:50:36;;;;;;;33.02;8.83;;;;;;;21.92;100.00;100604.47;1732058;80;21457;-59
2021/06/25 01:53:03;;;;;;;33.33;9.10;;;;;;;21.88;100.00;100605.73;1747457;80;21466;-60
2021/06/25 01:55:41;;;;;;;32.17;8.90;;;;;;;21.87;100.00;100616.29;1726650;79;21030;-60
2021/06/25 01:58:19;;;;;;;28.40;7.53;;;;;;;21.86;100.00;100614.56;1732244;80;21430;-60
2021/06/25 02:01:10;;;;;;;27.13;7.70;;;;;;;21.83;100.00;100613.45;1710377;80;21022;-60
2021/06/25 02:03:38;;;;;;;26.37;7.62;;;;;;;21.79;100.00;100625.12;1672973;82;21076;-61
2021/06/25 02:06:06;;;;;;;31.95;7.62;;;;;;;21.78;100.00;100627.48;1681133;82;21661;-60
2021/06/25 02:08:33;;;;;;;27.55;7.30;;;;;;;21.78;100.00;100623.91;1662876;83;21498;-61
2021/06/25 02:11:01;;;;;;;24.75;7.58;;;;;;;21.74;100.00;100626.87;1736665;79;20933;-61
2021/06/25 02:13:30;;;;;;;30.37;7.65;;;;;;;21.72;100.00;100628.86;1747639;79;21015;-59
2021/06/25 02:15:57;;;;;;;25.02;7.15;;;;;;;21.69;100.00;100627.77;1744977;80;21833;-60
2021/06/25 02:18:24;;;;;;;31.87;7.55;;;;;;;21.69;100.00;100617.36;1734444;79;21101;-61
2021/06/25 02:20:51;;;;;;;27.20;6.83;;;;;;;21.70;100.00;100618.58;1713565;81;21555;-60
2021/06/25 02:23:18;;;;;;;25.82;6.87;;;;;;;21.72;100.00;100623.41;1683729;81;21299;-60
2021/06/25 02:25:45;;;;;;;30.70;7.67;;;;;;;21.73;100.00;100619.68;1724708;80;21020;-60
2021/06/25 02:28:12;;;;;;;29.67;7.10;;;;;;;21.74;100.00;100625.50;1730955;81;21278;-60
2021/06/25 02:30:38;;;;;;;34.00;7.58;;;;;;;21.75;100.00;100605.92;1739908;79;21108;-59
2021/06/25 02:33:05;;;;;;;24.25;7.70;;;;;;;21.75;100.00;100609.50;1718866;80;21115;-60
2021/06/25 02:35:32;;;;;;;32.65;7.85;;;;;;;21.75;100.00;100595.86;1735401;80;21949;-61
2021/06/25 02:37:58;;;;;;;31.40;7.65;;;;;;;21.78;100.00;100599.34;1739233;79;21283;-61
2021/06/25 02:40:25;;;;;;;28.70;7.28;;;;;;;21.79;100.00;100595.63;1729866;80;21893;-59
2021/06/25 02:42:52;;;;;;;35.30;9.40;;;;;;;21.81;100.00;100596.35;1721827;80;21087;-59
2021/06/25 02:45:20;;;;;;;34.58;9.48;;;;;;;21.84;100.00;100602.91;1733293;79;20904;-60
2021/06/25 02:47:46;;;;;;;29.92;8.95;;;;;;;21.88;100.00;100601.16;1726714;80;20877;-60
2021/06/25 02:50:14;;;;;;;26.85;10.55;;;;;;;21.94;100.00;100602.98;1721852;80;20965;-60
2021/06/25 02:52:41;;;;;;;36.90;9.38;;;;;;;21.97;100.00;100602.20;1722253;80;20893;-60
2021/06/25 02:55:09;;;;;;;45.83;10.00;;;;;;;22.01;100.00;100611.89;1700448;81;21667;-60
2021/06/25 02:57:36;;;;;;;32.63;8.00;;;;;;;22.08;100.00;100627.73;1734823;80;21388;-60
2021/06/25 03:00:08;;;;;;;35.08;8.80;;;;;;;22.10;100.00;100625.22;1741193;79;21727;-60
2021/06/25 03:02:34;;;;;;;37.42;8.68;;;;;;;22.12;100.00;100630.55;1741877;78;21528;-59
2021/06/25 03:05:01;;;;;;;28.80;8.78;;;;;;;22.13;100.00;100636.38;1722839;80;20921;-59
2021/06/25 03:07:29;;;;;;;35.00;8.63;;;;;;;22.13;100.00;100635.02;1725564;80;21405;-59
2021/06/25 03:09:55;;;;;;;33.45;8.65;;;;;;;22.13;100.00;100639.11;1737926;80;20988;-59
2021/06/25 03:12:22;;;;;;;31.35;9.58;;;;;;;22.11;100.00;100624.73;1735360;78;21060;-59
2021/06/25 03:14:49;;;;;;;29.18;9.03;;;;;;;22.14;100.00;100620.37;1735222;80;21492;-59
2021/06/25 03:17:16;;;;;;;36.25;9.48;;;;;;;22.14;100.00;100625.34;1742342;79;21525;-59
2021/06/25 03:19:43;;;;;;;35.50;9.40;;;;;;;22.17;100.00;100622.83;1722406;80;21819;-60
2021/06/25 03:22:09;;;;;;;28.77;8.73;;;;;;;22.20;100.00;100622.55;1718601;81;21523;-60
2021/06/25 03:24:36;;;;;;;35.70;9.15;;;;;;;22.22;100.00;100620.59;1722696;80;21493;-59
2021/06/25 03:27:03;;;;;;;28.27;7.75;;;;;;;22.23;100.00;100625.53;1720816;80;20893;-58
2021/06/25 03:29:29;;;;;;;31.87;8.08;;;;;;;22.22;100.00;100621.95;1722930;80;20988;-59
2021/06/25 03:31:56;;;;;;;37.20;9.08;;;;;;;22.21;100.00;100624.28;1721579;80;21547;-59
2021/06/25 03:34:23;;;;;;;25.00;8.03;;;;;;;22.22;100.00;100628.78;1733252;81;21446;-59
2021/06/25 03:36:50;;;;;;;28.25;8.50;;;;;;;22.25;100.00;100632.61;1737495;79;21243;-60
2021/06/25 03:39:17;;;;;;;35.73;8.50;;;;;;;22.26;100.00;100628.88;1731237;80;20913;-60
2021/06/25 03:41:43;;;;;;;35.98;9.03;;;;;;;22.32;100.00;100631.06;1717862;79;20980;-60
2021/06/25 03:44:10;;;;;;;34.95;7.65;;;;;;;22.40;100.00;100637.23;1745428;79;21622;-59
2021/06/25 03:46:37;;;;;;;35.23;8.00;;;;;;;22.49;100.00;100628.77;1736009;80;21318;-60
2021/06/25 03:49:04;;;;;;;31.05;7.60;;;;;;;22.52;100.00;100625.76;1718884;79;21359;-59
2021/06/25 03:51:32;;;;;;;29.10;8.38;;;;;;;22.56;100.00;100621.75;1719135;79;21364;-59
2021/06/25 03:53:58;;;;;;;31.65;7.92;;;;;;;22.60;100.00;100618.25;1734196;80;20980;-59
2021/06/25 03:56:27;;;;;;;29.23;8.25;;;;;;;22.64;100.00;100617.47;1704632;80;21614;-59
2021/06/25 03:58:54;;;;;;;28.98;8.00;;;;;;;22.65;100.00;100621.92;1725904;80;21046;-59
2021/06/25 04:01:22;;;;;;;30.43;8.60;;;;;;;22.66;100.00;100633.22;1734283;80;20957;-59
2021/06/25 04:03:48;;;;;;;31.48;7.92;;;;;;;22.71;100.00;100637.80;1737466;79;20902;-60
2021/06/25 04:06:15;;;;;;;32.60;8.58;;;;;;;22.76;100.00;100635.52;1721464;81;20974;-60
2021/06/25 04:08:47;;;;;;;30.50;8.20;;;;;;;22.83;100.00;100636.69;1735297;80;20936;-60
2021/06/25 04:11:12;;;;;;;36.20;7.65;;;;;;;22.94;100.00;100634.88;1723333;80;21386;-59
2021/06/25 04:13:39;;;;;;;33.42;7.95;;;;;;;23.11;100.00;100638.34;1733310;80;21024;-60
2021/06/25 04:16:05;;;;;;;32.05;8.58;;;;;;;23.25;100.00;100633.47;1729796;80;21023;-59
2021/06/25 04:18:32;;;;;;;29.55;8.23;;;;;;;23.38;100.00;100638.22;1743479;79;21015;-60
2021/06/25 04:20:59;;;;;;;30.17;7.62;;;;;;;23.43;100.00;100634.56;1727237;79;21651;-61
2021/06/25 04:23:26;;;;;;;32.42;8.20;;;;;;;23.54;100.00;100641.78;1733151;79;21526;-59
2021/06/25 04:25:53;;;;;;;32.25;8.50;;;;;;;23.65;100.00;100635.31;1725823;81;21004;-59
2021/06/25 04:28:20;;;;;;;28.73;7.37;;;;;;;23.76;100.00;100643.89;1701372;81;21120;-59
2021/06/25 04:30:47;;;;;;;24.90;7.28;;;;;;;23.86;100.00;100646.64;1669305;83;22091;-60
2021/06/25 04:33:14;;;;;;;28.27;7.67;;;;;;;23.98;100.00;100649.58;1715239;81;21048;-60
2021/06/25 04:35:44;;;;;;;32.38;8.13;;;;;;;24.13;100.00;100653.30;1723891;81;20959;-60
2021/06/25 04:38:11;;;;;;;25.92;6.97;;;;;;;24.25;100.00;100654.88;1703506;80;21420;-60
2021/06/25 04:40:40;;;;;;;30.17;7.70;;;;;;;24.37;100.00;100661.55;1715187;80;21054;-60
2021/06/25 04:43:07;;;;;;;25.45;7.33;;;;;;;24.48;100.00;100657.30;1728002;80;20948;-60
2021/06/25 04:45:35;;;;;;;30.45;7.25;;;;;;;24.63;100.00;100660.44;1734774;80;21221;-60
2021/06/25 04:48:04;;;;;;;25.02;6.40;;;;;;;24.80;100.00;100649.22;1723856;80;20912;-60
2021/06/25 04:50:32;;;;;;;19.60;5.85;;;;;;;24.92;100.00;100643.58;1745748;80;21484;-61
2021/06/25 04:52:58;;;;;;;22.27;5.67;;;;;;;24.97;99.48;100645.34;1724843;80;21222;-60
2021/06/25 04:55:27;;;;;;;18.90;5.87;;;;;;;25.01;96.57;100649.51;1719638;80;20924;-60
2021/06/25 04:57:54;;;;;;;20.80;6.12;;;;;;;24.97;95.87;100642.61;1727988;81;21103;-60
2021/06/25 05:00:23;;;;;;;19.60;5.72;;;;;;;24.96;95.95;100645.84;1732114;80;20989;-61
2021/06/25 05:02:49;;;;;;;28.32;5.65;;;;;;;25.04;95.38;100647.83;1719666;79;20988;-60
2021/06/25 05:05:16;;;;;;;21.07;5.25;;;;;;;25.10;93.78;100643.63;1720898;81;21546;-60
2021/06/25 05:07:43;;;;;;;26.35;6.08;;;;;;;25.15;93.14;100649.02;1738645;80;21632;-59
2021/06/25 05:10:11;;;;;;;21.17;5.35;;;;;;;25.25;91.82;100648.09;1727557;80;21544;-61
2021/06/25 05:12:37;;;;;;;24.43;5.55;;;;;;;25.35;90.18;100650.30;1741470;79;21008;-60
2021/06/25 05:15:05;;;;;;;20.88;5.58;;;;;;;25.48;89.80;100641.72;1736847;80;21038;-61
2021/06/25 05:17:32;;;;;;;25.62;5.53;;;;;;;25.67;88.49;100647.58;1739439;80;21511;-60
2021/06/25 05:19:59;;;;;;;17.82;4.70;;;;;;;25.85;86.93;100638.49;1724820;80;21431;-61
2021/06/25 05:22:26;;;;;;;17.67;5.08;;;;;;;26.01;85.36;100641.40;1715383;81;21581;-59
2021/06/25 05:24:53;;;;;;;61.02;33.40;;;;;;;26.15;81.63;100634.47;1682613;82;20991;-59
2021/06/25 05:27:19;;;;;;;49.60;24.45;;;;;;;26.25;79.06;100641.28;1725183;80;21485;-60
2021/06/25 05:29:46;;;;;;;40.85;24.07;;;;;;;26.34;77.67;100637.21;1716950;80;21473;-61
2021/06/25 05:32:13;;;;;;;35.50;19.37;;;;;;;26.36;76.80;100635.16;1713465;80;21465;-60
2021/06/25 05:34:39;;;;;;;24.77;9.90;;;;;;;26.34;76.70;100634.47;1669584;81;21579;-60
2021/06/25 05:37:06;;;;;;;57.67;35.73;;;;;;;26.31;76.78;100632.92;1670720;82;21059;-61
2021/06/25 05:39:32;;;;;;;45.63;26.68;;;;;;;26.29;76.31;100635.81;1722033;81;21107;-60
2021/06/25 05:41:59;;;;;;;28.55;16.57;;;;;;;26.27;75.36;100632.36;1707823;81;20996;-60
2021/06/25 05:44:26;;;;;;;41.45;23.83;;;;;;;26.25;74.65;100624.80;1717631;80;21033;-59
2021/06/25 05:46:53;;;;;;;26.50;11.25;;;;;;;26.30;74.53;100628.41;1674484;83;21499;-61
2021/06/25 05:49:20;;;;;;;29.12;8.03;;;;;;;26.37;74.61;100624.52;1700691;82;21572;-60
2021/06/25 05:51:49;;;;;;;42.65;30.95;;;;;;;26.45;74.64;100635.59;1706500;80;21021;-60
2021/06/25 05:54:16;;;;;;;60.83;36.17;;;;;;;26.49;73.47;100634.73;1714933;80;21279;-61
2021/06/25 05:56:43;;;;;;;45.35;28.65;;;;;;;26.51;72.78;100637.69;1718477;80;20981;-61
2021/06/25 06:06:11;;;;;;;53.17;32.65;;;;;;;26.66;72.33;100642.08;1719880;80;20959;-61
2021/06/25 06:08:39;;;;;;;61.50;44.50;;;;;;;26.81;72.12;100638.73;1676654;82;20966;-59
2021/06/25 06:11:06;;;;;;;53.33;37.88;;;;;;;26.85;71.58;100635.50;1699555;81;20999;-61
2021/06/25 06:13:33;;;;;;;53.48;33.70;;;;;;;26.87;70.68;100637.61;1721323;80;21178;-62
2021/06/25 06:16:00;;;;;;;41.90;21.35;;;;;;;26.90;70.14;100636.92;1727046;80;20921;-62
2021/06/25 06:18:44;;;;;;;42.58;27.95;;;;;;;26.90;70.03;100639.14;1738432;80;20913;-60
2021/06/25 06:21:05;;;;;;;62.62;41.28;;;;;;;26.86;69.95;100640.01;1724127;79;21035;-60
2021/06/25 06:31:55;;;;;;;82.80;54.55;;;;;;;27.05;69.85;100638.01;1730671;80;20928;-60
2021/06/25 06:34:17;;;;;;;72.25;46.55;;;;;;;27.13;68.87;100640.81;1697766;82;20874;-60
2021/06/25 06:36:46;;;;;;;51.45;30.65;;;;;;;27.18;67.85;100643.05;1661878;82;21663;-59
2021/06/25 06:39:13;;;;;;;68.70;40.92;;;;;;;27.24;67.38;100650.66;1671754;83;21592;-59
2021/06/25 06:41:41;;;;;;;51.58;23.02;;;;;;;27.28;66.85;100656.67;1677030;82;21523;-59
2021/06/25 06:44:09;;;;;;;55.40;16.20;;;;;;;27.31;66.77;100657.22;1655072;82;21413;-60
2021/06/25 06:46:36;;;;;;;40.67;10.00;;;;;;;27.38;67.20;100670.30;1661565;82;20990;-60
2021/06/25 06:49:04;;;;;;;31.57;7.78;;;;;;;27.50;67.69;100678.62;1654736;82;21017;-62
2021/06/25 06:51:31;;;;;;;29.37;6.47;;;;;;;27.68;68.25;100677.14;1714865;80;21406;-62
2021/06/25 06:54:00;;;;;;;21.52;5.97;;;;;;;27.83;68.17;100684.76;1694325;81;21315;-61
2021/06/25 06:56:27;;;;;;;18.00;5.08;;;;;;;27.96;67.50;100682.35;1681700;81;21060;-61
2021/06/25 06:58:54;;;;;;;18.80;6.47;;;;;;;28.10;67.96;100681.34;1684312;81;21049;-60
2021/06/25 07:01:21;;;;;;;20.97;4.75;;;;;;;28.22;67.34;100692.42;1686172;81;21529;-61
2021/06/25 07:03:50;;;;;;;16.45;4.78;;;;;;;28.29;66.37;100687.93;1734408;80;21886;-61
2021/06/25 07:06:18;;;;;;;25.55;6.90;;;;;;;28.32;65.36;100682.61;1736242;79;21083;-62
2021/06/25 07:08:46;;;;;;;13.48;5.50;;;;;;;28.38;66.63;100686.54;1719781;80;21341;-63
2021/06/25 07:11:15;;;;;;;22.70;7.25;;;;;;;28.40;67.84;100689.98;1716972;80;21404;-62
2021/06/25 07:13:42;;;;;;;20.10;7.00;;;;;;;28.39;68.23;100686.88;1719289;80;21431;-61
2021/06/25 07:16:11;;;;;;;17.60;6.28;;;;;;;28.37;67.99;100690.33;1713885;80;21851;-64
2021/06/25 07:18:38;;;;;;;19.02;6.70;;;;;;;28.31;68.56;100680.34;1675310;81;21190;-63
2021/06/25 07:21:04;;;;;;;21.20;6.12;;;;;;;28.28;67.72;100677.06;1751580;78;21565;-63
2021/06/25 07:23:31;;;;;;;20.10;6.92;;;;;;;28.28;67.46;100674.31;1742001;79;21377;-63
2021/06/25 07:25:57;;;;;;;19.27;7.15;;;;;;;28.27;67.05;100667.95;1734639;79;21512;-62
2021/06/25 07:28:24;;;;;;;22.05;6.40;;;;;;;28.27;66.72;100669.83;1735304;79;21341;-62
2021/06/25 07:30:53;;;;;;;29.15;6.87;;;;;;;28.29;66.26;100667.27;1717604;81;21010;-64
2021/06/25 07:33:21;;;;;;;25.77;6.50;;;;;;;28.33;65.73;100663.65;1710617;81;21884;-63
2021/06/25 07:35:48;;;;;;;35.55;9.35;;;;;;;28.40;65.68;100661.03;1721348;80;21580;-62
2021/06/25 07:38:15;;;;;;;28.80;7.85;;;;;;;28.38;65.58;100659.85;1708502;79;21635;-63
2021/06/25 07:40:42;;;;;;;27.17;9.10;;;;;;;28.40;65.66;100655.02;1705396;80;21009;-59
2021/06/25 07:43:09;;;;;;;28.15;11.05;;;;;;;28.49;65.78;100647.61;1715337;80;22524;-59
2021/06/25 07:45:39;;;;;;;45.23;24.98;;;;;;;28.58;65.99;100652.05;1730393;80;21071;-59
2021/06/25 07:48:07;;;;;;;63.75;40.65;;;;;;;28.64;64.44;100649.66;1736229;80;21125;-58
2021/06/25 07:50:34;;;;;;;82.75;43.60;;;;;;;28.68;64.14;100653.25;1740785;79;21087;-59
2021/06/25 07:53:02;;;;;;;72.55;35.83;;;;;;;28.76;64.56;100659.80;1730378;79;21006;-60
2021/06/25 07:55:29;;;;;;;51.28;26.00;;;;;;;28.92;64.75;100647.89;1731048;79;21460;-60
2021/06/25 07:57:56;;;;;;;44.33;17.98;;;;;;;29.12;64.14;100657.47;1734039;80;21152;-59
2021/06/25 08:00:23;;;;;;;37.33;16.15;;;;;;;29.29;63.10;100662.90;1715795;80;21035;-59
2021/06/25 08:02:49;;;;;;;38.88;18.55;;;;;;;29.43;61.68;100656.66;1706962;80;21391;-61
2021/06/25 08:05:16;;;;;;;38.30;15.80;;;;;;;29.51;60.66;100660.41;1732785;80;21636;-60
2021/06/25 08:07:43;;;;;;;33.90;11.65;;;;;;;29.64;59.39;100654.32;1725525;79;21031;-59
2021/06/25 08:10:10;;;;;;;26.82;13.08;;;;;;;29.77;57.84;100659.24;1741502;79;21042;-59
2021/06/25 08:12:37;;;;;;;29.00;11.50;;;;;;;29.91;55.16;100660.35;1719674;80;21046;-59
2021/06/25 08:15:06;;;;;;;34.73;8.18;;;;;;;30.12;54.19;100669.36;1731358;79;21407;-59
2021/06/25 08:17:33;;;;;;;22.98;6.42;;;;;;;30.40;52.08;100675.18;1736327;79;21873;-59
2021/06/25 08:20:00;;;;;;;25.50;5.85;;;;;;;30.63;51.25;100679.83;1736003;79;21071;-61
2021/06/25 08:22:28;;;;;;;11.78;4.78;;;;;;;30.79;50.20;100677.41;1724568;79;21008;-61
2021/06/25 08:25:06;;;;;;;17.60;5.53;;;;;;;30.90;49.33;100682.16;1744194;79;21106;-60
2021/06/25 08:27:53;;;;;;;22.15;5.10;;;;;;;31.03;50.24;100687.03;1790564;76;21448;-61
2021/06/25 08:30:24;;;;;;;18.48;4.83;;;;;;;31.13;48.99;100687.08;1808394;75;21078;-60
2021/06/25 08:32:49;;;;;;;22.62;5.30;;;;;;;31.14;48.14;100686.02;1780737;76;21056;-60
2021/06/25 08:35:15;;;;;;;24.30;5.83;;;;;;;31.21;49.36;100686.66;1806347;76;21565;-61
2021/06/25 08:37:42;;;;;;;25.12;5.70;;;;;;;31.36;50.65;100686.13;1752342;78;21141;-61
2021/06/25 08:40:10;;;;;;;26.55;5.65;;;;;;;31.47;51.75;100687.55;1795707;76;21115;-61
2021/06/25 08:42:39;;;;;;;17.65;5.70;;;;;;;31.52;51.93;100682.82;1788142;76;21468;-60
2021/06/25 08:45:11;;;;;;;26.25;6.25;;;;;;;31.55;52.62;100681.04;1790920;77;21002;-60
2021/06/25 08:47:47;;;;;;;21.62;5.87;;;;;;;31.55;53.39;100685.20;1773360;77;21016;-60
2021/06/25 08:50:20;;;;;;;25.02;6.75;;;;;;;31.58;52.48;100683.42;1774884;77;21132;-60
2021/06/25 08:52:51;;;;;;;23.65;7.33;;;;;;;31.63;52.49;100686.45;1777699;78;21063;-61
2021/06/25 08:55:18;;;;;;;27.15;8.55;;;;;;;31.69;53.13;100684.82;1785235;76;21571;-61
2021/06/25 08:57:45;;;;;;;27.80;8.20;;;;;;;31.64;54.10;100681.24;1793768;76;21071;-61
2021/06/25 09:00:18;;;;;;;20.02;7.40;;;;;;;31.59;54.18;100685.98;1799576;75;21590;-60
2021/06/25 09:02:47;;;;;;;18.60;6.62;;;;;;;31.56;53.31;100682.76;1795758;76;21067;-60
2021/06/25 09:05:28;;;;;;;22.75;5.90;;;;;;;31.57;52.67;100673.39;1783690;77;20988;-60
2021/06/25 09:08:06;;;;;;;26.05;5.90;;;;;;;31.58;51.66;100673.72;1785128;77;21584;-61
2021/06/25 09:10:36;;;;;;;26.60;8.08;;;;;;;31.58;51.50;100669.56;1781871;76;21927;-61
2021/06/25 09:13:11;;;;;;;22.22;7.30;;;;;;;31.51;52.60;100670.86;1784858;76;20970;-61
2021/06/25 09:15:40;;;;;;;17.92;6.42;;;;;;;31.49;53.43;100666.56;1772300;77;21159;-60
2021/06/25 09:18:12;;;;;;;20.52;6.53;;;;;;;31.46;52.32;100665.56;1779558;76;21079;-60
2021/06/25 09:20:47;;;;;;;19.42;6.58;;;;;;;31.41;51.94;100655.09;1793013;76;21080;-60
2021/06/25 09:23:34;;;;;;;19.00;5.95;;;;;;;31.40;52.03;100662.53;1793178;76;21653;-60
2021/06/25 09:26:11;;;;;;;17.55;5.97;;;;;;;31.43;51.72;100664.91;1797234;75;21445;-62
2021/06/25 09:28:43;;;;;;;18.85;5.67;;;;;;;31.47;51.08;100659.84;1792323;76;21012;-62
2021/06/25 09:31:14;;;;;;;21.57;6.00;;;;;;;31.50;50.39;100666.89;1724440;78;21057;-60
2021/06/25 09:33:54;;;;;;;23.67;6.12;;;;;;;31.49;50.21;100665.17;1775851;77;21276;-61
2021/06/25 09:36:33;;;;;;;17.40;5.40;;;;;;;31.47;50.15;100656.20;1804765;75;21448;-60
2021/06/25 09:39:09;;;;;;;14.73;5.60;;;;;;;31.49;50.24;100649.94;1780464;77;21094;-59
2021/06/25 09:41:38;;;;;;;12.78;5.37;;;;;;;31.53;50.04;100652.68;1794151;75;21672;-61
2021/06/25 09:44:10;;;;;;;16.80;5.58;;;;;;;31.52;49.80;100646.27;1788895;75;21015;-61
2021/06/25 09:46:42;;;;;;;19.52;7.03;;;;;;;31.50;49.98;100647.50;1784625;76;21109;-58
2021/06/25 09:49:14;;;;;;;18.98;5.85;;;;;;;31.54;50.15;100643.31;1798032;76;21575;-60
2021/06/25 09:51:56;;;;;;;23.92;6.03;;;;;;;31.62;49.84;100637.64;1749861;79;21171;-60
2021/06/25 09:54:24;;;;;;;17.98;6.20;;;;;;;31.75;49.40;100639.70;1738390;78;21051;-60
2021/06/25 09:57:10;;;;;;;24.05;6.70;;;;;;;31.81;48.78;100632.55;1751836;78;21475;-59
2021/06/25 10:02:23;;;;;;;19.25;8.55;;;;;;;31.84;49.25;100629.38;1752514;77;20992;-59
2021/06/25 10:05:05;;;;;;;27.32;8.65;;;;;;;31.89;49.37;100628.25;1772070;77;21412;-61
2021/06/25 10:07:30;;;;;;;17.95;7.28;;;;;;;31.95;49.18;100628.86;1737367;79;21496;-60
2021/06/25 10:10:02;;;;;;;18.65;6.58;;;;;;;32.06;49.17;100629.37;1789326;77;21114;-63
2021/06/25 10:12:28;;;;;;;13.90;5.58;;;;;;;32.13;49.01;100626.98;1782498;78;21087;-61
2021/06/25 10:14:55;;;;;;;13.03;5.58;;;;;;;32.24;48.65;100620.03;1782365;78;21510;-61
2021/06/25 10:17:26;;;;;;;22.25;6.20;;;;;;;32.37;48.27;100619.31;1801457;76;21206;-60
2021/06/25 10:19:56;;;;;;;18.60;6.37;;;;;;;32.50;47.96;100621.88;1802161;76;21116;-60
2021/06/25 10:22:26;;;;;;;12.03;5.62;;;;;;;32.60;47.91;100618.71;1799775;77;21795;-61
2021/06/25 10:24:53;;;;;;;13.95;5.37;;;;;;;32.67;47.82;100625.18;1789219;77;21876;-61
2021/06/25 10:27:21;;;;;;;15.80;5.97;;;;;;;32.71;47.29;100623.71;1782232;76;21069;-61
2021/06/25 10:29:48;;;;;;;14.87;5.55;;;;;;;32.73;47.09;100624.36;1789572;76;21526;-61
2021/06/25 10:32:16;;;;;;;14.03;5.92;;;;;;;32.73;46.80;100618.81;1772607;76;22327;-62
2021/06/25 10:34:44;;;;;;;12.23;5.42;;;;;;;32.72;46.79;100617.09;1783809;77;21571;-60
2021/06/25 10:37:22;;;;;;;19.95;6.08;;;;;;;32.73;46.84;100614.64;1774192;77;21139;-60
2021/06/25 10:39:55;;;;;;;19.62;6.00;;;;;;;32.76;46.68;100617.55;1800090;75;21008;-59
2021/06/25 10:42:19;;;;;;;16.25;5.80;;;;;;;32.78;46.76;100621.82;1781467;77;21148;-59
2021/06/25 10:44:57;;;;;;;18.87;6.15;;;;;;;32.80;47.00;100623.86;1766080;78;21593;-60
2021/06/25 10:47:34;;;;;;;23.85;7.00;;;;;;;32.84;47.24;100622.41;1784364;78;21511;-59
2021/06/25 10:50:09;;;;;;;15.88;6.90;;;;;;;32.85;47.53;100628.80;1794312;77;21865;-60
2021/06/25 10:52:39;;;;;;;;;;;;;;;32.85;48.04;100628.29;1754194;78;21275;-61
2021/06/25 10:55:12;;;;;;;21.07;7.25;;;;;;;32.82;48.46;100623.66;1741019;78;20687;-61
2021/06/25 10:57:54;;;;;;;15.23;6.22;;;;;;;32.78;48.48;100627.92;1733164;79;21584;-61
2021/06/25 11:00:39;;;;;;;15.75;6.55;;;;;;;32.72;48.89;100628.20;1743879;78;21612;-61
2021/06/25 11:03:06;;;;;;;;;;;;;;;32.65;49.04;100627.30;1808015;76;21088;-60
2021/06/25 11:05:33;;;;;;;17.92;6.05;;;;;;;32.56;48.69;100620.51;1787545;76;20171;-60
2021/06/25 11:08:20;;;;;;;20.48;5.97;;;;;;;32.51;49.01;100623.04;1797790;75;20988;-63
2021/06/25 11:10:52;;;;;;;25.25;6.25;;;;;;;32.43;49.20;100617.66;1774519;77;41002;-60
2021/06/25 11:13:35;;;;;;;16.57;6.60;;;;;;;32.33;49.90;100614.36;1749087;79;21515;-59
2021/06/25 11:15:53;;;;;;;23.98;6.10;;;;;;;32.26;50.42;100610.11;1745219;79;21109;-59
2021/06/25 11:18:30;;;;;;;15.23;6.12;;;;;;;32.22;50.47;100608.80;1725992;79;21110;-58
2021/06/25 11:21:07;;;;;;;23.77;6.22;;;;;;;32.17;50.76;100605.27;1750698;78;21005;-58
2021/06/25 11:23:43;;;;;;;21.00;6.30;;;;;;;32.10;51.25;100601.56;1762980;79;20996;-61
2021/06/25 11:26:24;;;;;;;19.00;5.62;;;;;;;32.07;51.59;100603.36;1750651;78;21103;-61
2021/06/25 11:28:54;;;;;;;16.70;5.55;;;;;;;32.04;51.44;100606.53;1734962;78;21121;-61
2021/06/25 11:31:24;;;;;;;21.82;6.20;;;;;;;31.96;51.54;100594.54;1739559;78;21036;-61
2021/06/25 11:33:57;;;;;;;19.45;5.95;;;;;;;31.89;51.72;100600.52;1733672;80;21542;-61
2021/06/25 11:36:39;;;;;;;20.40;5.92;;;;;;;31.75;51.88;100600.06;1729413;78;21075;-61
2021/06/25 11:39:33;;;;;;;34.03;7.75;;;;;;;31.63;52.27;100590.03;1749859;79;21107;-61
2021/06/25 11:42:12;;;;;;;16.25;6.10;;;;;;;31.54;52.74;100589.30;1727645;79;21114;-59
2021/06/25 11:44:42;;;;;;;24.35;7.08;;;;;;;31.44;53.09;100586.30;1740157;78;21028;-59
2021/06/25 11:47:26;;;;;;;20.62;8.13;;;;;;;31.36;53.70;100583.66;1749309;79;21055;-59
2021/06/25 11:52:32;;;;;;;28.40;8.33;;;;;;;31.21;53.67;100582.84;1759734;78;22001;-59
2021/06/25 11:55:12;;;;;;;17.02;7.70;;;;;;;31.13;54.07;100573.56;1766964;77;22036;-60
2021/06/25 11:57:41;;;;;;;23.18;7.28;;;;;;;31.11;54.61;100586.75;1742584;78;21770;-60
2021/06/25 12:00:14;;;;;;;23.05;7.53;;;;;;;31.09;55.08;100586.09;1740461;79;21063;-61
2021/06/25 12:02:54;;;;;;;19.20;7.35;;;;;;;31.09;54.92;100579.17;1735417;79;22050;-59
2021/06/25 12:05:31;;;;;;;22.87;7.58;;;;;;;31.13;54.89;100573.56;1730729;79;21099;-62
2021/06/25 12:08:14;;;;;;;26.25;7.40;;;;;;;31.17;54.73;100562.97;1740955;78;22400;-59
2021/06/25 12:10:45;;;;;;;23.05;6.87;;;;;;;31.19;54.66;100566.41;1733983;79;21467;-61
2021/06/25 12:13:11;;;;;;;20.12;7.53;;;;;;;31.20;54.53;100574.20;1727345;79;21067;-61
2021/06/25 12:15:45;;;;;;;23.62;6.95;;;;;;;31.23;54.51;100569.65;1732888;79;21058;-63
2021/06/25 12:18:26;;;;;;;19.48;6.87;;;;;;;31.24;54.46;100569.98;1710126;80;21505;-61
2021/06/25 12:21:07;;;;;;;24.90;7.15;;;;;;;31.20;54.43;100565.38;1724899;79;21124;-60
2021/06/25 12:23:33;;;;;;;18.73;6.58;;;;;;;31.20;54.58;100567.27;1747075;79;20928;-59
2021/06/25 12:26:18;;;;;;;24.92;6.85;;;;;;;31.26;54.46;100560.95;1760924;78;21036;-59
2021/06/25 12:28:58;;;;;;;20.27;6.85;;;;;;;31.31;54.41;100558.47;1729898;80;21657;-61
2021/06/25 12:31:32;;;;;;;25.85;8.08;;;;;;;31.40;54.60;100554.52;1717164;80;22428;-62
2021/06/25 12:34:16;;;;;;;16.57;6.28;;;;;;;31.48;54.21;100549.37;1714143;80;21648;-63
2021/06/25 12:36:44;;;;;;;22.95;7.17;;;;;;;31.55;53.93;100552.22;1713527;80;21416;-62
2021/06/25 12:39:12;;;;;;;24.12;7.72;;;;;;;31.62;54.03;100554.52;1681270;81;21047;-62
2021/06/25 12:44:02;;;;;;;26.12;7.03;;;;;;;31.81;53.46;100554.95;1821537;76;22700;-61
2021/06/25 12:46:29;;;;;;;19.27;6.70;;;;;;;31.78;53.10;100552.58;1796228;78;20877;-63
2021/06/25 12:49:00;;;;;;;35.23;7.00;;;;;;;31.80;53.00;100551.84;1796472;78;21116;-61
2021/06/25 12:51:33;;;;;;;20.50;6.80;;;;;;;31.80;52.75;100550.46;1790561;78;21469;-60
2021/06/25 12:53:59;;;;;;;21.55;6.08;;;;;;;31.84;52.76;100547.61;1795372;78;21492;-60